Time;durP1;ratioP1;P1;durP2;ratioP2;P2;SDS_P1;SDS_P2;PMS_P1;PMS_P2;Temp;Humidity;BMP_temperature;BMP_pressure;BME280_temperature;BME280_humidity;BME280_pressure;Samples;Min_cycle;Max_cycle;Signal;HPM_P1;HPM_P2
2021/05/02 00:02:21;;;;;;;11.50;7.00;;;7.70;99.90;;;;;;5132146;28;20112;-87
2021/05/02 00:04:49;;;;;;;14.95;6.85;;;7.60;99.90;;;;;;5132395;28;20048;-88
2021/05/02 00:07:15;;;;;;;11.43;7.07;;;7.60;99.90;;;;;;5132004;28;20127;-87
2021/05/02 00:09:42;;;;;;;13.55;7.07;;;7.60;99.90;;;;;;5132211;28;20455;-87
2021/05/02 00:12:09;;;;;;;14.40;7.70;;;7.70;99.90;;;;;;5115237;28;20156;-87
2021/05/02 00:14:36;;;;;;;15.20;8.38;;;7.70;99.90;;;;;;5131434;28;20510;-86
2021/05/02 00:17:05;;;;;;;12.88;7.80;;;7.70;99.90;;;;;;5131883;28;20039;-87
2021/05/02 00:19:34;;;;;;;12.52;7.75;;;7.70;99.90;;;;;;5115072;28;20056;-87
2021/05/02 00:22:00;;;;;;;15.57;9.68;;;7.70;99.90;;;;;;5149119;28;20038;-87
2021/05/02 00:24:27;;;;;;;24.20;10.00;;;7.70;99.90;;;;;;5114491;28;20039;-88
2021/05/02 00:26:54;;;;;;;15.63;9.02;;;7.80;99.90;;;;;;5098626;28;20058;-88
2021/05/02 00:29:21;;;;;;;19.88;10.55;;;7.70;99.90;;;;;;5131517;28;20035;-87
2021/05/02 00:31:49;;;;;;;16.15;10.25;;;7.70;99.90;;;;;;5148860;28;20036;-87
2021/05/02 00:34:16;;;;;;;16.02;11.05;;;7.70;99.90;;;;;;5131299;28;20032;-87
2021/05/02 00:36:43;;;;;;;20.52;11.65;;;7.60;99.90;;;;;;5148864;28;20043;-88
2021/05/02 00:39:11;;;;;;;20.30;10.95;;;7.60;99.90;;;;;;5115104;28;20484;-87
2021/05/02 00:41:42;;;;;;;19.48;11.27;;;7.70;99.90;;;;;;5130998;28;20116;-87
2021/05/02 00:44:22;;;;;;;21.42;11.25;;;7.90;99.90;;;;;;5148533;28;20039;-86
2021/05/02 00:47:02;;;;;;;21.02;11.35;;;7.60;99.90;;;;;;5148557;28;20043;-87
2021/05/02 00:49:35;;;;;;;20.63;11.20;;;7.60;99.90;;;;;;5149111;28;20510;-87
2021/05/02 00:52:10;;;;;;;20.65;10.68;;;7.70;99.90;;;;;;5148723;28;20080;-87
2021/05/02 00:54:46;;;;;;;19.98;11.52;;;7.60;99.90;;;;;;5131112;28;20040;-87
2021/05/02 00:57:25;;;;;;;21.42;10.80;;;7.60;99.90;;;;;;5118249;28;20085;-87
2021/05/02 01:00:07;;;;;;;18.48;10.68;;;7.70;99.90;;;;;;5148681;28;20032;-87
2021/05/02 01:02:35;;;;;;;20.67;11.05;;;7.60;99.90;;;;;;5131058;28;20044;-87
2021/05/02 01:05:07;;;;;;;19.35;10.07;;;7.60;99.90;;;;;;5131514;28;20047;-89
2021/05/02 01:07:37;;;;;;;18.95;9.60;;;7.60;99.90;;;;;;5148187;28;20035;-88
2021/05/02 01:10:13;;;;;;;20.17;9.35;;;7.60;99.90;;;;;;5148536;28;20031;-88
2021/05/02 01:12:49;;;;;;;23.50;10.00;;;7.60;99.90;;;;;;5131497;28;20138;-88
2021/05/02 01:15:26;;;;;;;19.05;9.82;;;7.60;99.90;;;;;;5148410;28;20039;-88
2021/05/02 01:18:00;;;;;;;23.33;9.80;;;7.50;99.90;;;;;;5148461;28;20388;-89
2021/05/02 01:20:28;;;;;;;20.60;8.43;;;7.60;99.90;;;;;;5148252;28;20039;-87
2021/05/02 01:23:18;;;;;;;21.13;9.25;;;7.50;99.90;;;;;;5148643;28;20055;-88
2021/05/02 01:25:45;;;;;;;22.20;9.40;;;7.60;99.90;;;;;;5148245;28;20127;-87
2021/05/02 01:28:13;;;;;;;19.02;9.35;;;7.50;99.90;;;;;;5148281;28;20048;-87
2021/05/02 01:30:41;;;;;;;18.13;8.73;;;7.50;99.90;;;;;;5147912;28;20516;-88
2021/05/02 01:33:08;;;;;;;20.45;9.60;;;7.50;99.90;;;;;;5148727;28;20043;-87
2021/05/02 01:35:35;;;;;;;21.63;8.50;;;7.50;99.90;;;;;;5148106;28;20479;-87
2021/05/02 01:38:02;;;;;;;23.02;8.73;;;7.50;99.90;;;;;;5131476;28;20036;-87
2021/05/02 01:40:29;;;;;;;17.85;8.73;;;7.50;99.90;;;;;;5147832;28;20035;-86
2021/05/02 01:42:56;;;;;;;26.38;8.77;;;7.50;99.90;;;;;;5131193;28;20035;-87
2021/05/02 01:45:23;;;;;;;25.92;9.02;;;7.50;99.90;;;;;;5130545;28;20051;-86
2021/05/02 01:47:58;;;;;;;21.23;8.57;;;7.50;99.90;;;;;;5113936;28;20040;-87
2021/05/02 01:50:26;;;;;;;23.95;8.93;;;7.50;99.90;;;;;;5147489;28;20039;-87
2021/05/02 01:52:54;;;;;;;22.02;8.88;;;7.50;99.90;;;;;;5131210;28;20491;-88
2021/05/02 01:55:22;;;;;;;20.00;8.18;;;7.50;99.90;;;;;;5148319;28;20036;-87
2021/05/02 01:57:51;;;;;;;24.73;8.70;;;7.50;99.90;;;;;;5131977;28;20480;-87
2021/05/02 02:00:26;;;;;;;21.92;8.52;;;7.50;99.90;;;;;;5148158;28;20047;-87
2021/05/02 02:02:54;;;;;;;16.40;7.55;;;7.50;99.90;;;;;;5148840;28;20040;-86
2021/05/02 02:05:24;;;;;;;19.27;7.95;;;7.60;99.90;;;;;;5149214;28;20036;-87
2021/05/02 02:07:51;;;;;;;19.50;7.13;;;7.40;99.90;;;;;;5151486;28;20160;-86
2021/05/02 02:10:20;;;;;;;20.33;7.60;;;7.50;99.90;;;;;;5134567;28;20057;-87
2021/05/02 02:12:51;;;;;;;16.88;6.85;;;7.50;99.90;;;;;;5134028;28;20042;-87
2021/05/02 02:15:19;;;;;;;17.67;6.82;;;7.50;99.90;;;;;;5151563;28;20080;-87
2021/05/02 02:17:46;;;;;;;17.35;6.82;;;7.40;99.90;;;;;;5150752;28;20054;-87
2021/05/02 02:20:14;;;;;;;16.48;6.15;;;7.40;99.90;;;;;;5134559;28;20535;-87
2021/05/02 02:22:44;;;;;;;19.30;7.05;;;7.40;99.90;;;;;;5134164;28;20032;-87
2021/05/02 02:25:11;;;;;;;16.15;6.53;;;7.40;99.90;;;;;;5151997;28;20042;-87
2021/05/02 02:27:40;;;;;;;20.58;6.57;;;7.50;99.90;;;;;;5116972;28;20118;-88
2021/05/02 02:30:10;;;;;;;13.80;5.45;;;7.40;99.90;;;;;;5134552;28;20540;-89
2021/05/02 02:32:45;;;;;;;16.75;6.60;;;7.40;99.90;;;;;;5151205;28;20040;-89
2021/05/02 02:35:16;;;;;;;20.38;6.40;;;7.40;99.90;;;;;;5134922;28;20130;-89
2021/05/02 02:37:54;;;;;;;18.30;6.00;;;7.50;99.90;;;;;;5151360;28;20024;-88
2021/05/02 02:40:23;;;;;;;14.02;5.45;;;7.30;99.90;;;;;;5135413;28;20074;-89
2021/05/02 02:42:51;;;;;;;15.85;5.50;;;7.40;99.90;;;;;;5117210;28;20441;-88
2021/05/02 02:45:19;;;;;;;21.77;5.40;;;7.30;99.90;;;;;;5151961;28;20036;-88
2021/05/02 02:47:53;;;;;;;14.60;4.63;;;7.20;99.90;;;;;;5133223;28;20048;-87
2021/05/02 02:50:20;;;;;;;19.77;5.38;;;7.20;99.90;;;;;;5150731;28;20047;-89
2021/05/02 02:52:56;;;;;;;15.70;5.10;;;7.20;99.90;;;;;;5150225;28;20042;-88
2021/05/02 02:55:24;;;;;;;15.27;5.40;;;7.20;99.90;;;;;;5150801;28;20177;-87
2021/05/02 02:57:51;;;;;;;15.10;5.18;;;7.10;99.90;;;;;;5150302;28;20117;-88
2021/05/02 03:00:20;;;;;;;15.55;4.97;;;7.10;99.90;;;;;;5150765;28;20070;-88
2021/05/02 03:02:51;;;;;;;17.67;5.00;;;7.10;99.90;;;;;;5151224;28;20429;-87
2021/05/02 03:05:22;;;;;;;15.98;4.70;;;7.30;99.90;;;;;;5150784;28;20043;-87
2021/05/02 03:07:51;;;;;;;13.10;4.75;;;7.10;99.90;;;;;;5149815;28;20035;-87
2021/05/02 03:10:19;;;;;;;13.90;4.80;;;7.10;99.90;;;;;;5150503;28;20032;-88
2021/05/02 03:12:50;;;;;;;17.17;5.22;;;7.10;99.90;;;;;;5149957;28;20066;-88
2021/05/02 03:15:16;;;;;;;14.45;4.30;;;7.10;99.90;;;;;;5150237;28;20059;-88
2021/05/02 03:17:53;;;;;;;14.25;4.53;;;7.10;99.90;;;;;;5132182;28;20063;-88
2021/05/02 03:20:24;;;;;;;12.73;4.00;;;7.20;99.90;;;;;;5151431;28;20032;-87
2021/05/02 03:22:57;;;;;;;16.30;4.60;;;7.10;99.90;;;;;;5133252;28;20420;-87
2021/05/02 03:25:29;;;;;;;11.25;3.80;;;7.10;99.90;;;;;;5151146;28;20119;-88
2021/05/02 03:28:03;;;;;;;11.50;3.88;;;7.10;99.90;;;;;;5150604;28;20035;-87
2021/05/02 03:30:30;;;;;;;8.48;4.70;;;7.10;99.90;;;;;;5150218;28;20032;-87
2021/05/02 03:33:02;;;;;;;12.13;4.30;;;7.10;99.90;;;;;;5149498;28;20442;-88
2021/05/02 03:35:34;;;;;;;11.02;3.58;;;7.10;99.90;;;;;;5150237;28;20093;-87
2021/05/02 03:38:24;;;;;;;12.55;3.90;;;7.10;99.90;;;;;;5133316;28;20101;-88
2021/05/02 03:40:54;;;;;;;16.17;3.80;;;7.10;99.90;;;;;;5149704;28;20042;-87
2021/05/02 03:43:20;;;;;;;15.95;3.92;;;7.10;99.90;;;;;;5149616;28;20069;-86
2021/05/02 03:45:47;;;;;;;9.65;3.50;;;7.10;99.90;;;;;;5132745;28;20035;-88
2021/05/02 03:48:15;;;;;;;19.90;3.90;;;7.10;99.90;;;;;;5115659;28;20058;-87
2021/05/02 03:50:42;;;;;;;10.23;3.80;;;7.10;99.90;;;;;;5132297;28;20532;-87
2021/05/02 03:53:09;;;;;;;9.50;3.55;;;7.10;99.90;;;;;;5149814;28;20036;-88
2021/05/02 03:55:44;;;;;;;15.55;4.00;;;7.00;99.90;;;;;;5132288;28;20044;-85
2021/05/02 03:58:16;;;;;;;11.38;4.05;;;7.00;99.90;;;;;;5149934;28;20072;-88
2021/05/02 04:00:44;;;;;;;13.13;4.00;;;7.10;99.90;;;;;;5150005;28;20039;-87
2021/05/02 04:03:14;;;;;;;10.88;4.35;;;7.00;99.90;;;;;;5150042;28;20038;-87
2021/05/02 04:05:43;;;;;;;10.68;4.05;;;7.10;99.90;;;;;;5131882;28;20031;-87
2021/05/02 04:08:10;;;;;;;12.15;4.40;;;7.10;99.90;;;;;;5116329;28;20042;-87
2021/05/02 04:10:37;;;;;;;10.02;4.05;;;7.10;99.90;;;;;;5115015;28;20486;-85
2021/05/02 04:13:04;;;;;;;13.57;4.43;;;7.00;99.90;;;;;;5132051;28;20475;-87
2021/05/02 04:15:30;;;;;;;13.68;4.13;;;7.00;99.90;;;;;;5116052;28;20118;-86
2021/05/02 04:17:57;;;;;;;10.40;4.28;;;7.00;99.90;;;;;;5149594;28;20042;-87
2021/05/02 04:20:24;;;;;;;9.15;4.40;;;7.00;99.90;;;;;;5115317;28;20051;-87
2021/05/02 04:22:51;;;;;;;11.07;4.30;;;7.00;99.90;;;;;;5114622;28;20032;-87
2021/05/02 04:25:18;;;;;;;14.63;4.88;;;6.90;99.90;;;;;;5110492;28;20641;-87
2021/05/02 04:27:45;;;;;;;14.23;3.95;;;7.00;99.90;;;;;;5115062;28;20063;-87
2021/05/02 04:30:12;;;;;;;9.18;4.35;;;6.90;99.90;;;;;;5115354;28;20047;-87
2021/05/02 04:32:38;;;;;;;13.07;4.22;;;6.90;99.90;;;;;;5137778;28;20111;-87
2021/05/02 04:35:06;;;;;;;16.45;5.05;;;7.00;99.90;;;;;;5115049;28;20066;-87
2021/05/02 04:37:33;;;;;;;15.88;5.32;;;7.00;99.90;;;;;;5115344;28;20043;-87
2021/05/02 04:39:59;;;;;;;11.60;4.22;;;7.00;99.90;;;;;;5148301;28;20039;-86
2021/05/02 04:42:26;;;;;;;14.65;5.15;;;6.90;99.90;;;;;;5115217;28;20031;-87
2021/05/02 04:44:53;;;;;;;13.38;4.88;;;7.00;99.90;;;;;;5130884;28;20048;-87
2021/05/02 04:47:20;;;;;;;11.80;4.13;;;7.00;99.90;;;;;;5115215;28;20532;-88
2021/05/02 04:49:47;;;;;;;14.05;4.25;;;7.00;99.90;;;;;;5114944;28;20050;-89
2021/05/02 04:52:15;;;;;;;15.65;4.15;;;7.00;99.90;;;;;;5131655;28;20486;-89
2021/05/02 04:54:42;;;;;;;11.30;4.38;;;7.00;99.90;;;;;;5131317;28;20035;-84
2021/05/02 04:57:08;;;;;;;8.20;3.88;;;7.00;99.90;;;;;;5131701;28;20484;-88
2021/05/02 04:59:35;;;;;;;14.00;4.38;;;7.00;99.90;;;;;;5115414;28;20036;-88
2021/05/02 05:02:04;;;;;;;12.57;4.47;;;7.00;99.90;;;;;;5114719;28;20095;-88
2021/05/02 05:04:30;;;;;;;14.65;5.53;;;7.00;99.90;;;;;;5131974;28;20041;-87
2021/05/02 05:06:57;;;;;;;9.82;4.45;;;7.00;99.90;;;;;;5131278;28;20539;-88
2021/05/02 05:09:24;;;;;;;10.95;4.30;;;7.00;99.90;;;;;;5131799;28;20032;-88
2021/05/02 05:11:51;;;;;;;13.95;5.00;;;7.00;99.90;;;;;;5131316;28;20065;-88
2021/05/02 05:14:18;;;;;;;9.18;4.30;;;6.90;99.90;;;;;;5131590;28;20455;-88
2021/05/02 05:16:45;;;;;;;11.10;4.45;;;7.00;99.90;;;;;;5131738;28;20145;-88
2021/05/02 05:19:12;;;;;;;8.23;4.30;;;6.90;99.90;;;;;;5115177;28;20092;-88
2021/05/02 05:21:39;;;;;;;7.65;3.97;;;6.90;99.90;;;;;;5115027;28;20046;-88
2021/05/02 05:24:06;;;;;;;11.27;4.22;;;6.90;99.90;;;;;;5131723;28;20039;-88
2021/05/02 05:26:33;;;;;;;10.18;3.85;;;6.90;99.90;;;;;;5131208;28;20042;-88
2021/05/02 05:29:00;;;;;;;8.70;4.15;;;6.90;99.90;;;;;;5114930;28;20063;-87
2021/05/02 05:31:26;;;;;;;11.43;4.13;;;6.90;99.90;;;;;;5115255;28;20035;-88
2021/05/02 05:33:53;;;;;;;11.65;4.32;;;7.00;99.90;;;;;;5114447;28;20035;-88
2021/05/02 05:36:20;;;;;;;10.75;3.95;;;6.90;99.90;;;;;;5114634;28;20043;-88
2021/05/02 05:38:48;;;;;;;9.93;3.50;;;7.00;99.90;;;;;;5131032;28;20500;-88
2021/05/02 05:41:15;;;;;;;9.60;4.13;;;7.10;99.90;;;;;;5117005;28;20028;-88
2021/05/02 05:43:42;;;;;;;10.80;3.92;;;7.30;99.90;;;;;;5152259;28;20428;-88
2021/05/02 05:46:13;;;;;;;8.77;3.78;;;7.00;99.90;;;;;;5117979;28;20038;-88
2021/05/02 05:48:41;;;;;;;10.00;4.25;;;7.00;99.90;;;;;;5120107;28;20047;-88
2021/05/02 05:51:09;;;;;;;9.70;3.85;;;7.00;99.90;;;;;;5135733;28;20035;-88
2021/05/02 05:53:36;;;;;;;12.48;4.05;;;7.00;99.90;;;;;;5135332;28;20490;-88
2021/05/02 05:56:03;;;;;;;9.65;3.80;;;7.10;99.90;;;;;;5134697;28;20035;-88
2021/05/02 05:58:32;;;;;;;12.55;3.80;;;7.10;99.90;;;;;;5152307;28;20067;-89
2021/05/02 06:00:59;;;;;;;10.75;3.88;;;7.20;99.90;;;;;;5101380;28;20370;-89
2021/05/02 06:03:26;;;;;;;8.07;3.40;;;7.10;99.90;;;;;;5114277;28;20085;-88
2021/05/02 06:05:52;;;;;;;7.13;3.15;;;7.10;99.90;;;;;;5115834;28;20044;-87
2021/05/02 06:08:19;;;;;;;8.95;3.78;;;7.00;99.90;;;;;;5128651;28;20115;-88
2021/05/02 06:10:46;;;;;;;9.75;4.05;;;7.00;99.90;;;;;;5112047;28;20081;-88
2021/05/02 06:13:17;;;;;;;12.55;4.13;;;7.00;99.90;;;;;;5127203;28;20075;-88
2021/05/02 06:15:45;;;;;;;10.50;3.58;;;6.90;99.90;;;;;;5114233;28;20032;-88
2021/05/02 06:18:12;;;;;;;8.50;3.13;;;7.00;99.90;;;;;;5130612;28;20114;-88
2021/05/02 06:20:39;;;;;;;9.00;3.30;;;7.00;99.90;;;;;;5131130;28;20495;-87
2021/05/02 06:23:06;;;;;;;6.80;3.00;;;7.10;99.90;;;;;;5097032;28;20115;-87
2021/05/02 06:25:33;;;;;;;10.15;3.15;;;7.10;99.90;;;;;;5130697;28;20165;-86
2021/05/02 06:28:00;;;;;;;9.52;2.97;;;7.20;99.90;;;;;;5131565;28;20369;-85
2021/05/02 06:30:27;;;;;;;8.45;2.92;;;7.30;99.90;;;;;;5130749;28;20036;-86
2021/05/02 06:32:54;;;;;;;5.90;2.35;;;7.30;99.90;;;;;;5113112;28;20043;-87
2021/05/02 06:35:21;;;;;;;6.60;2.30;;;7.40;99.90;;;;;;5130378;28;20039;-86
2021/05/02 06:37:48;;;;;;;6.40;2.60;;;7.40;99.90;;;;;;5113392;28;20032;-84
2021/05/02 06:40:15;;;;;;;8.45;2.83;;;7.40;99.90;;;;;;5112968;28;20040;-87
2021/05/02 06:42:42;;;;;;;7.22;2.70;;;7.40;99.90;;;;;;5117131;28;20487;-86
2021/05/02 06:45:09;;;;;;;11.15;2.95;;;7.50;99.90;;;;;;5089589;28;20051;-87
2021/05/02 06:47:36;;;;;;;8.35;2.92;;;7.50;99.90;;;;;;5127087;28;20135;-87
2021/05/02 06:50:03;;;;;;;6.03;2.47;;;7.60;99.90;;;;;;5113676;28;20082;-86
2021/05/02 06:52:30;;;;;;;9.23;2.47;;;7.60;99.90;;;;;;5144515;28;20036;-86
2021/05/02 06:54:56;;;;;;;8.32;2.25;;;7.70;99.90;;;;;;5129951;28;20064;-85
2021/05/02 06:57:23;;;;;;;5.97;2.15;;;7.70;99.90;;;;;;5096342;28;20055;-86
2021/05/02 06:59:50;;;;;;;6.78;2.20;;;7.70;99.90;;;;;;5112741;28;20491;-86
2021/05/02 07:02:17;;;;;;;5.00;2.10;;;7.80;99.90;;;;;;5143196;28;20043;-85
2021/05/02 07:04:44;;;;;;;5.78;1.90;;;7.80;99.90;;;;;;5132901;28;20043;-86
2021/05/02 07:07:10;;;;;;;4.03;2.00;;;7.90;99.90;;;;;;5115636;28;20537;-86
2021/05/02 07:09:37;;;;;;;6.70;2.10;;;7.90;99.90;;;;;;5132977;28;20100;-86
2021/05/02 07:12:04;;;;;;;7.50;2.10;;;7.90;99.90;;;;;;5136473;28;20032;-87
2021/05/02 07:14:31;;;;;;;5.32;2.00;;;8.00;99.90;;;;;;5113097;28;20383;-88
2021/05/02 07:16:58;;;;;;;7.05;2.10;;;8.00;99.90;;;;;;5130027;28;20507;-87
2021/05/02 07:19:24;;;;;;;5.32;2.10;;;8.00;99.90;;;;;;5113229;28;20036;-89
2021/05/02 07:22:01;;;;;;;7.85;2.53;;;8.00;99.90;;;;;;5113478;28;20039;-88
2021/05/02 07:24:28;;;;;;;8.00;2.30;;;8.00;99.90;;;;;;5130169;28;20036;-90
2021/05/02 07:26:55;;;;;;;8.95;1.83;;;8.00;99.90;;;;;;5122582;28;20039;-87
2021/05/02 07:29:22;;;;;;;7.45;2.03;;;7.90;99.90;;;;;;5132604;28;20062;-88
2021/05/02 07:31:49;;;;;;;6.03;2.05;;;7.80;99.90;;;;;;5150212;28;20035;-86
2021/05/02 07:34:16;;;;;;;5.28;1.95;;;7.80;99.90;;;;;;5132455;28;20043;-88
2021/05/02 07:36:43;;;;;;;4.03;1.70;;;7.70;99.90;;;;;;5132728;28;20542;-87
2021/05/02 07:39:10;;;;;;;5.65;1.70;;;7.70;99.90;;;;;;5132079;28;20036;-83
2021/05/02 07:41:37;;;;;;;4.72;1.60;;;7.70;99.90;;;;;;5148133;28;20122;-86
2021/05/02 07:44:04;;;;;;;4.50;1.65;;;7.70;99.90;;;;;;5099946;28;20031;-89
2021/05/02 07:46:31;;;;;;;5.13;1.92;;;7.70;99.90;;;;;;5122245;28;20442;-87
2021/05/02 07:48:57;;;;;;;4.90;1.50;;;7.70;99.90;;;;;;5128994;28;20052;-88
2021/05/02 07:51:24;;;;;;;5.90;1.73;;;7.70;99.90;;;;;;5111690;28;20043;-90
2021/05/02 07:53:52;;;;;;;5.63;1.52;;;7.80;99.90;;;;;;5112607;28;20048;-88
2021/05/02 07:56:19;;;;;;;7.50;2.08;;;7.80;99.90;;;;;;5111876;28;20549;-87
2021/05/02 07:58:46;;;;;;;6.15;1.77;;;7.70;99.90;;;;;;5117898;28;20070;-89
2021/05/02 08:01:12;;;;;;;4.03;1.67;;;7.70;99.90;;;;;;5126604;28;20168;-88
2021/05/02 08:03:39;;;;;;;3.90;1.48;;;7.80;99.90;;;;;;5132481;28;20036;-90
2021/05/02 08:06:06;;;;;;;4.45;1.67;;;7.90;99.90;;;;;;5115809;28;20040;-89
2021/05/02 08:08:33;;;;;;;2.90;1.10;;;7.90;99.90;;;;;;5107434;28;20039;-89
2021/05/02 08:10:59;;;;;;;4.30;1.30;;;7.80;99.90;;;;;;5105087;28;20042;-87
2021/05/02 08:13:26;;;;;;;2.80;1.20;;;7.70;99.90;;;;;;5123681;28;20391;-89
2021/05/02 08:15:53;;;;;;;3.30;1.27;;;7.60;99.90;;;;;;5149846;28;20035;-91
2021/05/02 08:18:20;;;;;;;2.45;1.00;;;7.60;99.90;;;;;;5132829;28;20036;-89
2021/05/02 08:20:47;;;;;;;3.80;1.20;;;7.70;99.90;;;;;;5116451;28;20067;-90
2021/05/02 08:23:14;;;;;;;2.88;0.90;;;7.70;99.90;;;;;;5099275;28;20462;-90
2021/05/02 08:25:41;;;;;;;2.80;1.00;;;7.70;99.90;;;;;;5132925;28;20046;-91
2021/05/02 08:28:08;;;;;;;12.25;1.50;;;7.70;99.90;;;;;;5116039;28;20035;-89
2021/05/02 08:30:35;;;;;;;4.65;1.70;;;7.90;99.90;;;;;;5139433;28;20082;-90
2021/05/02 08:33:02;;;;;;;5.43;1.83;;;7.70;99.90;;;;;;5128349;28;20042;-90
2021/05/02 08:35:29;;;;;;;5.30;1.70;;;7.80;99.90;;;;;;5132007;28;20040;-89
2021/05/02 08:37:56;;;;;;;6.45;2.10;;;7.80;99.90;;;;;;5132825;28;20031;-89
2021/05/02 08:40:23;;;;;;;5.63;2.10;;;7.80;99.90;;;;;;5132311;28;20039;-90
2021/05/02 08:42:53;;;;;;;5.03;2.20;;;7.80;99.90;;;;;;5149376;28;20039;-90
2021/05/02 08:45:22;;;;;;;7.00;2.00;;;7.80;99.90;;;;;;5132924;28;20044;-90
2021/05/02 08:47:49;;;;;;;7.07;2.30;;;7.80;99.90;;;;;;5150933;28;20039;-90
2021/05/02 08:50:16;;;;;;;7.28;2.20;;;7.90;99.90;;;;;;5149291;28;20047;-89
2021/05/02 08:52:43;;;;;;;5.63;2.10;;;7.70;99.90;;;;;;5149000;28;20044;-89
2021/05/02 08:55:10;;;;;;;5.85;2.35;;;7.70;99.90;;;;;;5098279;28;20150;-86
2021/05/02 08:57:38;;;;;;;7.72;2.17;;;7.70;99.90;;;;;;5132157;28;20031;-89
2021/05/02 09:00:07;;;;;;;9.32;2.20;;;7.60;99.90;;;;;;5148840;28;20091;-89
2021/05/02 09:02:35;;;;;;;5.70;1.70;;;7.60;99.90;;;;;;5149097;28;20039;-89
2021/05/02 09:05:05;;;;;;;5.43;2.00;;;7.70;99.90;;;;;;5116068;28;20047;-89
2021/05/02 09:07:42;;;;;;;5.10;1.90;;;7.60;99.90;;;;;;5149624;28;20036;-89
2021/05/02 09:10:11;;;;;;;4.10;1.52;;;7.70;99.90;;;;;;5132573;28;20031;-89
2021/05/02 09:12:40;;;;;;;6.68;1.73;;;7.80;99.90;;;;;;5149444;28;20043;-90
2021/05/02 09:15:09;;;;;;;3.33;1.40;;;7.90;99.90;;;;;;5149145;28;20042;-89
2021/05/02 09:18:18;;;;;;;3.00;1.40;;;8.00;99.90;;;;;;5119404;28;20062;-89
2021/05/02 09:20:48;;;;;;;4.45;1.20;;;8.20;99.90;;;;;;5127868;28;20515;-89
2021/05/02 09:23:15;;;;;;;3.45;1.33;;;8.30;99.90;;;;;;5153222;28;20036;-90
2021/05/02 09:25:53;;;;;;;4.32;1.40;;;8.40;99.90;;;;;;5153453;28;20044;-89
2021/05/02 09:28:39;;;;;;;4.00;1.50;;;8.50;99.90;;;;;;5153975;28;20456;-89
2021/05/02 09:31:08;;;;;;;5.20;1.88;;;8.70;99.90;;;;;;5153197;28;20042;-90
2021/05/02 09:33:36;;;;;;;4.45;1.60;;;8.80;99.90;;;;;;5152955;28;20122;-88
2021/05/02 09:36:07;;;;;;;4.85;1.75;;;9.00;99.90;;;;;;5153320;28;20488;-90
2021/05/02 09:38:34;;;;;;;3.38;1.10;;;8.80;99.90;;;;;;5153014;28;20535;-90
2021/05/02 09:41:02;;;;;;;3.78;1.23;;;8.60;99.90;;;;;;5153458;28;20044;-90
2021/05/02 09:43:30;;;;;;;2.35;1.10;;;8.20;99.90;;;;;;5135992;28;20038;-89
2021/05/02 09:46:23;;;;;;;3.50;1.40;;;7.90;99.90;;;;;;5152699;28;20040;-89
2021/05/02 09:48:56;;;;;;;4.70;1.38;;;7.70;99.90;;;;;;5152130;28;20047;-90
2021/05/02 09:51:25;;;;;;;6.35;1.80;;;7.50;99.90;;;;;;5153144;28;20039;-89
2021/05/02 09:54:05;;;;;;;7.03;1.70;;;7.40;99.90;;;;;;5136308;28;20035;-90
2021/05/02 09:56:37;;;;;;;6.43;1.85;;;7.50;99.90;;;;;;5152120;28;20038;-89
2021/05/02 09:59:17;;;;;;;4.60;1.70;;;7.60;99.90;;;;;;5151028;28;20027;-89
2021/05/02 10:02:11;;;;;;;5.55;1.48;;;7.70;99.90;;;;;;5116464;28;20437;-91
2021/05/02 10:04:51;;;;;;;3.95;1.60;;;7.80;99.90;;;;;;5131376;28;20389;-88
2021/05/02 10:07:23;;;;;;;5.50;1.63;;;8.10;99.90;;;;;;5142043;28;20036;-82
2021/05/02 10:09:52;;;;;;;4.38;1.40;;;8.00;99.90;;;;;;5131463;28;20072;-87
2021/05/02 10:12:19;;;;;;;3.63;1.42;;;8.10;99.90;;;;;;5151270;28;20384;-85
2021/05/02 10:14:48;;;;;;;2.20;0.90;;;8.00;99.90;;;;;;5145831;28;20376;-87
2021/05/02 10:17:15;;;;;;;2.70;1.25;;;8.10;99.90;;;;;;5140147;28;20110;-88
2021/05/02 10:19:43;;;;;;;3.95;1.30;;;8.20;99.90;;;;;;5126647;28;20028;-88
2021/05/02 10:22:11;;;;;;;3.30;1.33;;;8.30;99.90;;;;;;5125245;28;20032;-89
2021/05/02 10:24:38;;;;;;;4.20;1.58;;;8.30;99.90;;;;;;5117550;28;20036;-90
2021/05/02 10:27:10;;;;;;;4.43;1.30;;;8.30;99.90;;;;;;5133971;28;20036;-90
2021/05/02 10:29:39;;;;;;;2.97;1.20;;;8.20;99.90;;;;;;5151365;28;20038;-90
2021/05/02 10:32:11;;;;;;;2.72;1.30;;;8.20;99.90;;;;;;5151332;28;20092;-89
2021/05/02 10:34:43;;;;;;;3.33;1.08;;;8.10;99.90;;;;;;5151474;28;20042;-89
2021/05/02 10:37:26;;;;;;;4.07;1.10;;;8.10;99.90;;;;;;5151555;28;20106;-90
2021/05/02 10:39:54;;;;;;;3.63;1.23;;;7.90;99.90;;;;;;5152300;28;20065;-89
2021/05/02 10:42:34;;;;;;;3.65;1.50;;;7.80;99.90;;;;;;5151702;28;20031;-83
2021/05/02 10:45:37;;;;;;;4.57;1.80;;;7.90;99.90;;;;;;5143272;28;20055;-89
2021/05/02 10:48:06;;;;;;;5.80;1.60;;;7.80;99.90;;;;;;5150225;28;20042;-88
2021/05/02 10:50:46;;;;;;;3.47;1.67;;;7.80;99.90;;;;;;5150764;28;20056;-88
2021/05/02 10:53:18;;;;;;;3.70;1.50;;;7.80;99.90;;;;;;5148101;28;20042;-89
2021/05/02 10:55:55;;;;;;;2.97;1.40;;;7.70;99.90;;;;;;5129998;28;20040;-87
2021/05/02 10:58:27;;;;;;;7.78;2.03;;;7.70;99.90;;;;;;5129686;28;20064;-87
2021/05/02 11:00:59;;;;;;;6.55;2.13;;;7.70;99.90;;;;;;5115652;28;20462;-87
2021/05/02 11:03:38;;;;;;;7.05;1.75;;;7.80;99.90;;;;;;5129757;28;20130;-86
2021/05/02 11:06:06;;;;;;;4.80;2.00;;;7.90;99.90;;;;;;5130407;28;20036;-87
2021/05/02 11:08:56;;;;;;;6.55;1.70;;;7.90;99.90;;;;;;5129263;28;20115;-88
2021/05/02 11:11:29;;;;;;;4.15;1.70;;;8.00;99.90;;;;;;5130001;28;20065;-87
2021/05/02 11:14:08;;;;;;;4.95;1.70;;;8.00;99.90;;;;;;5129111;28;20468;-80
2021/05/02 11:16:42;;;;;;;4.88;1.90;;;8.00;99.90;;;;;;5128989;28;20488;-86
2021/05/02 11:19:33;;;;;;;4.07;1.52;;;8.00;99.90;;;;;;5112797;28;20066;-88
2021/05/02 11:22:04;;;;;;;6.80;1.60;;;8.10;99.90;;;;;;5132552;28;20044;-86
2021/05/02 11:24:44;;;;;;;3.85;1.42;;;8.00;99.90;;;;;;5128706;28;20065;-88
2021/05/02 11:27:40;;;;;;;3.30;1.45;;;8.10;99.90;;;;;;5131888;28;20036;-86
2021/05/02 11:30:05;;;;;;;6.80;1.90;;;8.00;99.90;;;;;;5150371;28;20051;-87
2021/05/02 11:32:38;;;;;;;3.60;1.38;;;8.10;99.90;;;;;;5134478;28;20124;-87
2021/05/02 11:35:06;;;;;;;4.70;2.10;;;8.20;99.90;;;;;;5128974;28;20071;-86
2021/05/02 11:37:53;;;;;;;4.88;1.65;;;8.10;99.90;;;;;;5128005;28;20576;-87
2021/05/02 11:40:30;;;;;;;5.00;1.73;;;8.10;99.90;;;;;;5128761;28;20477;-88
2021/05/02 11:43:00;;;;;;;4.90;1.85;;;8.00;99.90;;;;;;5148325;28;20479;-86
2021/05/02 11:45:40;;;;;;;5.55;1.60;;;8.00;99.90;;;;;;5137216;28;20071;-84
2021/05/02 11:48:08;;;;;;;4.45;1.40;;;8.10;99.90;;;;;;5130021;28;20032;-85
2021/05/02 11:50:42;;;;;;;3.75;1.63;;;7.90;99.90;;;;;;5149392;28;20044;-85
2021/05/02 11:53:09;;;;;;;5.32;1.50;;;8.10;99.90;;;;;;5149213;28;20600;-86
2021/05/02 11:55:40;;;;;;;3.65;1.63;;;8.00;99.90;;;;;;5138518;28;20040;-86
2021/05/02 11:58:07;;;;;;;4.55;1.63;;;8.00;99.90;;;;;;5129777;28;20036;-86
2021/05/02 12:00:45;;;;;;;5.50;1.50;;;8.10;99.90;;;;;;5127811;28;20043;-85
2021/05/02 12:03:14;;;;;;;4.03;1.55;;;8.20;99.90;;;;;;5129512;28;20053;-86
2021/05/02 12:05:53;;;;;;;4.88;1.63;;;8.10;99.90;;;;;;5110929;28;20043;-86
2021/05/02 12:08:25;;;;;;;4.28;1.60;;;8.30;99.90;;;;;;5146494;28;20085;-86
2021/05/02 12:10:57;;;;;;;5.75;1.60;;;8.30;99.90;;;;;;5149442;28;20472;-85
2021/05/02 12:13:36;;;;;;;3.08;1.40;;;8.30;99.90;;;;;;5148889;28;20034;-83
2021/05/02 12:16:11;;;;;;;3.47;1.60;;;8.50;99.90;;;;;;5129488;28;20480;-85
2021/05/02 12:18:55;;;;;;;7.05;1.48;;;8.60;99.90;;;;;;5134277;28;20040;-84
2021/05/02 12:21:29;;;;;;;2.00;1.10;;;8.80;99.90;;;;;;5135028;28;20036;-86
2021/05/02 12:24:15;;;;;;;3.42;1.38;;;9.00;99.90;;;;;;5140810;28;20103;-87
2021/05/02 12:26:53;;;;;;;6.18;1.70;;;9.10;99.90;;;;;;5149528;28;20031;-85
2021/05/02 12:29:43;;;;;;;4.78;1.40;;;9.20;99.90;;;;;;5145741;28;20035;-87
2021/05/02 12:32:11;;;;;;;4.25;1.10;;;9.30;99.90;;;;;;5112010;28;20044;-86
2021/05/02 12:34:43;;;;;;;4.15;1.50;;;9.30;99.90;;;;;;5110904;28;20059;-86
2021/05/02 12:37:18;;;;;;;5.05;1.20;;;9.50;99.90;;;;;;5131079;28;20100;-88
2021/05/02 12:39:47;;;;;;;2.40;1.17;;;9.60;99.60;;;;;;5127763;28;20028;-89
2021/05/02 12:42:14;;;;;;;4.25;1.10;;;9.60;96.60;;;;;;5121579;28;20445;-88
2021/05/02 12:44:50;;;;;;;4.07;1.23;;;9.60;96.60;;;;;;5089055;28;20047;-87
2021/05/02 12:47:19;;;;;;;3.95;1.33;;;9.60;97.10;;;;;;5128128;28;20040;-86
2021/05/02 12:50:02;;;;;;;4.13;1.30;;;9.90;98.80;;;;;;5132304;28;20055;-89
2021/05/02 12:52:41;;;;;;;3.15;1.08;;;10.00;99.30;;;;;;5149720;28;20085;-89
2021/05/02 12:55:50;;;;;;;3.40;1.17;;;10.20;99.50;;;;;;5148565;28;20039;-87
2021/05/02 12:58:33;;;;;;;4.25;1.17;;;10.30;99.60;;;;;;5140556;28;20055;-86
2021/05/02 13:01:04;;;;;;;2.47;1.00;;;10.20;97.40;;;;;;5128586;28;20046;-85
2021/05/02 13:06:16;;;;;;;5.35;1.20;;;9.90;97.80;;;;;;5142147;28;20499;-87
2021/05/02 13:08:57;;;;;;;6.78;1.60;;;9.80;98.20;;;;;;5127642;28;20035;-87
2021/05/02 13:11:37;;;;;;;3.70;1.30;;;9.70;98.60;;;;;;5130092;28;20472;-87
2021/05/02 13:14:22;;;;;;;7.05;2.30;;;9.60;99.90;;;;;;5146689;28;20051;-87